sensor_id;sensor_type;location;lat;lon;timestamp;P1;durP1;ratioP1;P2;durP2;ratioP2
40072;SDS011;25774;52.256;9.356;2024-02-16T00:02:21;7.17;;;1.50;;
40072;SDS011;25774;52.256;9.356;2024-02-16T00:04:49;4.63;;;1.40;;
40072;SDS011;25774;52.256;9.356;2024-02-16T00:07:14;6.07;;;1.55;;
40072;SDS011;25774;52.256;9.356;2024-02-16T00:09:40;8.87;;;1.80;;
40072;SDS011;25774;52.256;9.356;2024-02-16T00:12:05;3.97;;;1.53;;
40072;SDS011;25774;52.256;9.356;2024-02-16T00:14:31;5.30;;;1.50;;
40072;SDS011;25774;52.256;9.356;2024-02-16T00:16:56;7.33;;;1.43;;
40072;SDS011;25774;52.256;9.356;2024-02-16T00:19:21;7.23;;;1.57;;
40072;SDS011;25774;52.256;9.356;2024-02-16T00:21:47;6.03;;;1.40;;
40072;SDS011;25774;52.256;9.356;2024-02-16T00:24:12;4.80;;;1.30;;
40072;SDS011;25774;52.256;9.356;2024-02-16T00:26:37;4.50;;;1.40;;
40072;SDS011;25774;52.256;9.356;2024-02-16T00:29:06;4.60;;;1.65;;
40072;SDS011;25774;52.256;9.356;2024-02-16T00:31:31;5.63;;;1.53;;
40072;SDS011;25774;52.256;9.356;2024-02-16T00:33:56;5.17;;;1.43;;
40072;SDS011;25774;52.256;9.356;2024-02-16T00:36:21;7.17;;;1.60;;
40072;SDS011;25774;52.256;9.356;2024-02-16T00:38:46;4.27;;;1.60;;
40072;SDS011;25774;52.256;9.356;2024-02-16T00:41:18;4.17;;;1.50;;
40072;SDS011;25774;52.256;9.356;2024-02-16T00:43:44;6.63;;;1.60;;
40072;SDS011;25774;52.256;9.356;2024-02-16T00:46:10;7.03;;;1.52;;
40072;SDS011;25774;52.256;9.356;2024-02-16T00:48:35;5.10;;;2.20;;
40072;SDS011;25774;52.256;9.356;2024-02-16T00:51:00;4.87;;;1.70;;
40072;SDS011;25774;52.256;9.356;2024-02-16T00:53:25;5.07;;;1.20;;
40072;SDS011;25774;52.256;9.356;2024-02-16T00:55:51;4.87;;;1.47;;
40072;SDS011;25774;52.256;9.356;2024-02-16T00:58:16;8.03;;;1.63;;
40072;SDS011;25774;52.256;9.356;2024-02-16T01:00:41;5.27;;;1.47;;
40072;SDS011;25774;52.256;9.356;2024-02-16T01:03:08;5.50;;;1.60;;
40072;SDS011;25774;52.256;9.356;2024-02-16T01:05:33;5.90;;;1.47;;
40072;SDS011;25774;52.256;9.356;2024-02-16T01:07:58;5.50;;;1.47;;
40072;SDS011;25774;52.256;9.356;2024-02-16T01:10:23;4.40;;;1.40;;
40072;SDS011;25774;52.256;9.356;2024-02-16T01:12:49;5.80;;;1.50;;
40072;SDS011;25774;52.256;9.356;2024-02-16T01:15:16;6.70;;;1.57;;
40072;SDS011;25774;52.256;9.356;2024-02-16T01:17:41;5.28;;;1.48;;
40072;SDS011;25774;52.256;9.356;2024-02-16T01:20:07;7.10;;;1.50;;
40072;SDS011;25774;52.256;9.356;2024-02-16T01:22:36;5.40;;;1.60;;
40072;SDS011;25774;52.256;9.356;2024-02-16T01:25:01;4.43;;;1.73;;
40072;SDS011;25774;52.256;9.356;2024-02-16T01:27:26;6.37;;;1.30;;
40072;SDS011;25774;52.256;9.356;2024-02-16T01:29:52;3.63;;;1.33;;
40072;SDS011;25774;52.256;9.356;2024-02-16T01:32:18;4.47;;;1.50;;
40072;SDS011;25774;52.256;9.356;2024-02-16T01:34:44;3.42;;;1.58;;
40072;SDS011;25774;52.256;9.356;2024-02-16T01:37:11;3.95;;;1.23;;
40072;SDS011;25774;52.256;9.356;2024-02-16T01:39:37;5.70;;;1.10;;
40072;SDS011;25774;52.256;9.356;2024-02-16T01:42:02;6.53;;;1.30;;
40072;SDS011;25774;52.256;9.356;2024-02-16T01:44:27;6.00;;;1.40;;
40072;SDS011;25774;52.256;9.356;2024-02-16T01:46:53;3.50;;;1.53;;
40072;SDS011;25774;52.256;9.356;2024-02-16T01:49:19;6.10;;;1.50;;
40072;SDS011;25774;52.256;9.356;2024-02-16T01:51:46;4.55;;;1.30;;
40072;SDS011;25774;52.256;9.356;2024-02-16T01:54:12;6.40;;;1.60;;
40072;SDS011;25774;52.256;9.356;2024-02-16T01:56:37;6.60;;;1.20;;
40072;SDS011;25774;52.256;9.356;2024-02-16T01:59:02;5.00;;;1.40;;
40072;SDS011;25774;52.256;9.356;2024-02-16T02:01:28;4.80;;;1.17;;
40072;SDS011;25774;52.256;9.356;2024-02-16T02:03:53;6.27;;;1.47;;
40072;SDS011;25774;52.256;9.356;2024-02-16T02:06:18;3.50;;;0.97;;
40072;SDS011;25774;52.256;9.356;2024-02-16T02:08:43;6.07;;;1.60;;
40072;SDS011;25774;52.256;9.356;2024-02-16T02:11:08;4.23;;;1.50;;
40072;SDS011;25774;52.256;9.356;2024-02-16T02:13:34;3.47;;;1.30;;
40072;SDS011;25774;52.256;9.356;2024-02-16T02:15:59;5.73;;;1.30;;
40072;SDS011;25774;52.256;9.356;2024-02-16T02:18:25;6.65;;;1.77;;
40072;SDS011;25774;52.256;9.356;2024-02-16T02:20:50;4.23;;;1.33;;
40072;SDS011;25774;52.256;9.356;2024-02-16T02:23:16;3.63;;;1.30;;
40072;SDS011;25774;52.256;9.356;2024-02-16T02:25:41;3.73;;;1.40;;
40072;SDS011;25774;52.256;9.356;2024-02-16T02:28:06;6.97;;;1.10;;
40072;SDS011;25774;52.256;9.356;2024-02-16T02:30:32;8.30;;;1.23;;
40072;SDS011;25774;52.256;9.356;2024-02-16T02:32:57;8.17;;;1.10;;
40072;SDS011;25774;52.256;9.356;2024-02-16T02:35:22;5.83;;;1.63;;
40072;SDS011;25774;52.256;9.356;2024-02-16T02:37:47;16.23;;;1.60;;
40072;SDS011;25774;52.256;9.356;2024-02-16T02:40:14;8.15;;;1.75;;
40072;SDS011;25774;52.256;9.356;2024-02-16T02:45:06;5.93;;;1.73;;
40072;SDS011;25774;52.256;9.356;2024-02-16T02:47:31;10.30;;;1.60;;
40072;SDS011;25774;52.256;9.356;2024-02-16T02:49:57;4.00;;;1.05;;
40072;SDS011;25774;52.256;9.356;2024-02-16T02:52:22;3.00;;;1.27;;
40072;SDS011;25774;52.256;9.356;2024-02-16T02:54:47;7.47;;;1.40;;
40072;SDS011;25774;52.256;9.356;2024-02-16T02:57:12;5.00;;;1.17;;
40072;SDS011;25774;52.256;9.356;2024-02-16T02:59:38;7.33;;;1.57;;
40072;SDS011;25774;52.256;9.356;2024-02-16T03:02:03;4.72;;;1.08;;
40072;SDS011;25774;52.256;9.356;2024-02-16T03:04:29;9.77;;;1.37;;
40072;SDS011;25774;52.256;9.356;2024-02-16T03:06:54;3.63;;;1.30;;
40072;SDS011;25774;52.256;9.356;2024-02-16T03:09:19;5.67;;;1.57;;
40072;SDS011;25774;52.256;9.356;2024-02-16T03:11:45;12.27;;;1.43;;
40072;SDS011;25774;52.256;9.356;2024-02-16T03:14:11;5.85;;;1.15;;
40072;SDS011;25774;52.256;9.356;2024-02-16T03:16:36;12.17;;;2.23;;
40072;SDS011;25774;52.256;9.356;2024-02-16T03:19:01;9.70;;;1.30;;
40072;SDS011;25774;52.256;9.356;2024-02-16T03:21:26;7.13;;;1.60;;
40072;SDS011;25774;52.256;9.356;2024-02-16T03:23:52;7.77;;;1.37;;
40072;SDS011;25774;52.256;9.356;2024-02-16T03:26:18;11.07;;;1.40;;
40072;SDS011;25774;52.256;9.356;2024-02-16T03:28:44;4.53;;;1.33;;
40072;SDS011;25774;52.256;9.356;2024-02-16T03:31:18;6.45;;;1.50;;
40072;SDS011;25774;52.256;9.356;2024-02-16T03:33:43;2.88;;;1.17;;
40072;SDS011;25774;52.256;9.356;2024-02-16T03:36:09;7.93;;;1.33;;
40072;SDS011;25774;52.256;9.356;2024-02-16T03:38:34;7.07;;;2.00;;
40072;SDS011;25774;52.256;9.356;2024-02-16T03:40:59;5.67;;;1.20;;
40072;SDS011;25774;52.256;9.356;2024-02-16T03:43:24;3.77;;;1.40;;
40072;SDS011;25774;52.256;9.356;2024-02-16T03:45:51;5.33;;;1.30;;
40072;SDS011;25774;52.256;9.356;2024-02-16T03:48:16;5.30;;;1.13;;
40072;SDS011;25774;52.256;9.356;2024-02-16T03:50:41;7.03;;;1.20;;
40072;SDS011;25774;52.256;9.356;2024-02-16T03:53:06;6.00;;;1.20;;
40072;SDS011;25774;52.256;9.356;2024-02-16T03:55:32;20.97;;;4.07;;
40072;SDS011;25774;52.256;9.356;2024-02-16T03:58:01;6.97;;;1.30;;
40072;SDS011;25774;52.256;9.356;2024-02-16T04:00:27;10.77;;;1.52;;
40072;SDS011;25774;52.256;9.356;2024-02-16T04:02:54;6.50;;;1.50;;
40072;SDS011;25774;52.256;9.356;2024-02-16T04:05:20;5.00;;;1.80;;
40072;SDS011;25774;52.256;9.356;2024-02-16T04:07:45;7.80;;;1.57;;
40072;SDS011;25774;52.256;9.356;2024-02-16T04:10:10;5.73;;;1.50;;
40072;SDS011;25774;52.256;9.356;2024-02-16T04:12:36;5.30;;;1.47;;
40072;SDS011;25774;52.256;9.356;2024-02-16T04:15:01;4.40;;;1.53;;
40072;SDS011;25774;52.256;9.356;2024-02-16T04:17:27;5.82;;;1.70;;
40072;SDS011;25774;52.256;9.356;2024-02-16T04:19:53;6.93;;;1.50;;
40072;SDS011;25774;52.256;9.356;2024-02-16T04:22:18;5.10;;;1.20;;
40072;SDS011;25774;52.256;9.356;2024-02-16T04:24:43;8.63;;;1.30;;
40072;SDS011;25774;52.256;9.356;2024-02-16T04:27:09;5.17;;;1.20;;
40072;SDS011;25774;52.256;9.356;2024-02-16T04:29:34;3.10;;;1.13;;
40072;SDS011;25774;52.256;9.356;2024-02-16T04:31:59;4.17;;;1.30;;
40072;SDS011;25774;52.256;9.356;2024-02-16T04:34:25;6.60;;;1.40;;
40072;SDS011;25774;52.256;9.356;2024-02-16T04:36:51;2.92;;;1.30;;
40072;SDS011;25774;52.256;9.356;2024-02-16T04:39:16;4.00;;;1.40;;
40072;SDS011;25774;52.256;9.356;2024-02-16T04:41:42;7.78;;;1.23;;
40072;SDS011;25774;52.256;9.356;2024-02-16T04:44:09;6.33;;;1.67;;
40072;SDS011;25774;52.256;9.356;2024-02-16T04:46:35;5.80;;;1.50;;
40072;SDS011;25774;52.256;9.356;2024-02-16T04:49:00;6.97;;;1.43;;
40072;SDS011;25774;52.256;9.356;2024-02-16T04:51:25;7.83;;;1.37;;
40072;SDS011;25774;52.256;9.356;2024-02-16T04:53:51;5.60;;;1.60;;
40072;SDS011;25774;52.256;9.356;2024-02-16T04:56:16;11.65;;;1.55;;
40072;SDS011;25774;52.256;9.356;2024-02-16T04:58:42;7.73;;;1.47;;
40072;SDS011;25774;52.256;9.356;2024-02-16T05:01:07;12.60;;;1.80;;
40072;SDS011;25774;52.256;9.356;2024-02-16T05:03:32;7.50;;;1.20;;
40072;SDS011;25774;52.256;9.356;2024-02-16T05:05:58;9.73;;;1.77;;
40072;SDS011;25774;52.256;9.356;2024-02-16T05:08:24;7.28;;;1.35;;
40072;SDS011;25774;52.256;9.356;2024-02-16T05:10:49;15.23;;;1.40;;
40072;SDS011;25774;52.256;9.356;2024-02-16T05:13:15;9.17;;;1.70;;
40072;SDS011;25774;52.256;9.356;2024-02-16T05:15:40;11.80;;;1.77;;
40072;SDS011;25774;52.256;9.356;2024-02-16T05:18:05;4.17;;;1.23;;
40072;SDS011;25774;52.256;9.356;2024-02-16T05:20:30;8.50;;;1.63;;
40072;SDS011;25774;52.256;9.356;2024-02-16T05:22:56;7.40;;;1.73;;
40072;SDS011;25774;52.256;9.356;2024-02-16T05:25:21;2.83;;;1.03;;
40072;SDS011;25774;52.256;9.356;2024-02-16T05:27:47;5.37;;;2.47;;
40072;SDS011;25774;52.256;9.356;2024-02-16T05:30:15;9.10;;;4.90;;
40072;SDS011;25774;52.256;9.356;2024-02-16T05:32:43;10.67;;;3.27;;
40072;SDS011;25774;52.256;9.356;2024-02-16T05:35:09;16.83;;;3.88;;
40072;SDS011;25774;52.256;9.356;2024-02-16T05:37:45;7.88;;;2.30;;
40072;SDS011;25774;52.256;9.356;2024-02-16T05:40:16;9.00;;;3.60;;
40072;SDS011;25774;52.256;9.356;2024-02-16T05:42:48;8.50;;;2.28;;
40072;SDS011;25774;52.256;9.356;2024-02-16T05:45:14;7.70;;;1.90;;
40072;SDS011;25774;52.256;9.356;2024-02-16T05:47:39;4.35;;;1.60;;
40072;SDS011;25774;52.256;9.356;2024-02-16T05:50:05;10.60;;;1.77;;
40072;SDS011;25774;52.256;9.356;2024-02-16T05:52:34;5.65;;;1.30;;
40072;SDS011;25774;52.256;9.356;2024-02-16T05:55:00;7.93;;;1.33;;
40072;SDS011;25774;52.256;9.356;2024-02-16T05:57:26;9.93;;;1.53;;
40072;SDS011;25774;52.256;9.356;2024-02-16T05:59:51;3.40;;;1.02;;
40072;SDS011;25774;52.256;9.356;2024-02-16T06:02:17;3.63;;;1.50;;
40072;SDS011;25774;52.256;9.356;2024-02-16T06:04:42;5.57;;;1.77;;
40072;SDS011;25774;52.256;9.356;2024-02-16T06:07:07;7.93;;;1.60;;
40072;SDS011;25774;52.256;9.356;2024-02-16T06:09:33;7.97;;;1.60;;
40072;SDS011;25774;52.256;9.356;2024-02-16T06:14:25;4.72;;;1.63;;
40072;SDS011;25774;52.256;9.356;2024-02-16T06:16:55;6.17;;;1.23;;
40072;SDS011;25774;52.256;9.356;2024-02-16T06:19:20;6.32;;;1.40;;
40072;SDS011;25774;52.256;9.356;2024-02-16T06:21:45;3.37;;;1.67;;
40072;SDS011;25774;52.256;9.356;2024-02-16T06:24:11;3.47;;;1.53;;
40072;SDS011;25774;52.256;9.356;2024-02-16T06:26:36;5.47;;;1.50;;
40072;SDS011;25774;52.256;9.356;2024-02-16T06:29:01;4.13;;;1.30;;
40072;SDS011;25774;52.256;9.356;2024-02-16T06:31:26;4.57;;;1.50;;
40072;SDS011;25774;52.256;9.356;2024-02-16T06:33:52;8.37;;;1.37;;
40072;SDS011;25774;52.256;9.356;2024-02-16T06:36:18;5.90;;;1.40;;
40072;SDS011;25774;52.256;9.356;2024-02-16T06:38:43;3.17;;;1.27;;
40072;SDS011;25774;52.256;9.356;2024-02-16T06:41:08;8.83;;;2.53;;
40072;SDS011;25774;52.256;9.356;2024-02-16T06:43:35;7.82;;;1.38;;
40072;SDS011;25774;52.256;9.356;2024-02-16T06:46:00;2.83;;;1.40;;
40072;SDS011;25774;52.256;9.356;2024-02-16T06:48:25;5.10;;;1.57;;
40072;SDS011;25774;52.256;9.356;2024-02-16T06:50:51;8.63;;;3.27;;
40072;SDS011;25774;52.256;9.356;2024-02-16T06:53:16;5.17;;;1.60;;
40072;SDS011;25774;52.256;9.356;2024-02-16T06:55:41;4.33;;;1.73;;
40072;SDS011;25774;52.256;9.356;2024-02-16T06:58:06;4.73;;;1.40;;
40072;SDS011;25774;52.256;9.356;2024-02-16T07:00:31;7.93;;;1.60;;
40072;SDS011;25774;52.256;9.356;2024-02-16T07:02:58;4.10;;;1.37;;
40072;SDS011;25774;52.256;9.356;2024-02-16T07:05:24;5.78;;;1.33;;
40072;SDS011;25774;52.256;9.356;2024-02-16T07:07:49;3.75;;;1.20;;
40072;SDS011;25774;52.256;9.356;2024-02-16T07:10:15;4.70;;;1.48;;
40072;SDS011;25774;52.256;9.356;2024-02-16T07:12:41;7.50;;;1.83;;
40072;SDS011;25774;52.256;9.356;2024-02-16T07:15:06;11.67;;;1.80;;
40072;SDS011;25774;52.256;9.356;2024-02-16T07:17:31;6.97;;;1.67;;
40072;SDS011;25774;52.256;9.356;2024-02-16T07:19:57;3.97;;;1.30;;
40072;SDS011;25774;52.256;9.356;2024-02-16T07:22:22;4.30;;;1.50;;
40072;SDS011;25774;52.256;9.356;2024-02-16T07:24:47;4.67;;;1.50;;
40072;SDS011;25774;52.256;9.356;2024-02-16T07:27:13;3.90;;;1.40;;
40072;SDS011;25774;52.256;9.356;2024-02-16T07:29:38;5.93;;;1.57;;
40072;SDS011;25774;52.256;9.356;2024-02-16T07:32:04;3.72;;;1.60;;
40072;SDS011;25774;52.256;9.356;2024-02-16T07:34:29;3.57;;;1.57;;
40072;SDS011;25774;52.256;9.356;2024-02-16T07:36:55;4.03;;;1.37;;
40072;SDS011;25774;52.256;9.356;2024-02-16T07:39:20;5.83;;;1.93;;
40072;SDS011;25774;52.256;9.356;2024-02-16T07:41:47;6.03;;;1.80;;
40072;SDS011;25774;52.256;9.356;2024-02-16T07:44:13;5.68;;;1.85;;
40072;SDS011;25774;52.256;9.356;2024-02-16T07:46:43;6.67;;;1.97;;
40072;SDS011;25774;52.256;9.356;2024-02-16T07:49:11;8.48;;;1.80;;
40072;SDS011;25774;52.256;9.356;2024-02-16T07:51:36;4.67;;;1.77;;
40072;SDS011;25774;52.256;9.356;2024-02-16T07:54:02;7.55;;;1.83;;
40072;SDS011;25774;52.256;9.356;2024-02-16T07:56:28;4.55;;;1.58;;
40072;SDS011;25774;52.256;9.356;2024-02-16T07:58:53;3.77;;;1.50;;
40072;SDS011;25774;52.256;9.356;2024-02-16T08:01:18;4.80;;;1.70;;
40072;SDS011;25774;52.256;9.356;2024-02-16T08:03:44;2.83;;;1.48;;
40072;SDS011;25774;52.256;9.356;2024-02-16T08:06:09;4.57;;;1.70;;
40072;SDS011;25774;52.256;9.356;2024-02-16T08:08:36;5.23;;;1.50;;
40072;SDS011;25774;52.256;9.356;2024-02-16T08:11:02;4.78;;;1.73;;
40072;SDS011;25774;52.256;9.356;2024-02-16T08:13:27;5.72;;;1.58;;
40072;SDS011;25774;52.256;9.356;2024-02-16T08:15:53;4.83;;;1.30;;
40072;SDS011;25774;52.256;9.356;2024-02-16T08:18:18;4.77;;;1.70;;
40072;SDS011;25774;52.256;9.356;2024-02-16T08:20:43;5.10;;;1.40;;
40072;SDS011;25774;52.256;9.356;2024-02-16T08:23:09;4.03;;;1.40;;
40072;SDS011;25774;52.256;9.356;2024-02-16T08:25:34;4.15;;;1.83;;
40072;SDS011;25774;52.256;9.356;2024-02-16T08:28:00;5.80;;;1.67;;
40072;SDS011;25774;52.256;9.356;2024-02-16T08:30:25;9.10;;;2.10;;
40072;SDS011;25774;52.256;9.356;2024-02-16T08:32:51;7.30;;;1.60;;
40072;SDS011;25774;52.256;9.356;2024-02-16T08:35:16;3.53;;;1.53;;
40072;SDS011;25774;52.256;9.356;2024-02-16T08:37:43;5.90;;;1.50;;
40072;SDS011;25774;52.256;9.356;2024-02-16T08:40:09;6.23;;;2.17;;
40072;SDS011;25774;52.256;9.356;2024-02-16T08:42:39;7.75;;;2.08;;
40072;SDS011;25774;52.256;9.356;2024-02-16T08:45:04;9.33;;;2.67;;
40072;SDS011;25774;52.256;9.356;2024-02-16T08:47:30;6.97;;;1.80;;
40072;SDS011;25774;52.256;9.356;2024-02-16T08:52:21;5.18;;;1.33;;
40072;SDS011;25774;52.256;9.356;2024-02-16T08:54:46;4.83;;;1.90;;
40072;SDS011;25774;52.256;9.356;2024-02-16T08:57:11;4.37;;;1.40;;
40072;SDS011;25774;52.256;9.356;2024-02-16T08:59:37;3.42;;;1.40;;
40072;SDS011;25774;52.256;9.356;2024-02-16T09:02:02;4.67;;;1.90;;
40072;SDS011;25774;52.256;9.356;2024-02-16T09:04:28;4.90;;;1.60;;
40072;SDS011;25774;52.256;9.356;2024-02-16T09:06:53;6.67;;;1.93;;
40072;SDS011;25774;52.256;9.356;2024-02-16T09:09:18;4.77;;;1.30;;
40072;SDS011;25774;52.256;9.356;2024-02-16T09:11:44;4.30;;;1.87;;
40072;SDS011;25774;52.256;9.356;2024-02-16T09:14:10;6.83;;;1.63;;
40072;SDS011;25774;52.256;9.356;2024-02-16T09:16:36;5.50;;;1.52;;
40072;SDS011;25774;52.256;9.356;2024-02-16T09:19:01;4.43;;;1.50;;
40072;SDS011;25774;52.256;9.356;2024-02-16T09:21:27;5.57;;;1.65;;
40072;SDS011;25774;52.256;9.356;2024-02-16T09:23:54;4.20;;;1.70;;
40072;SDS011;25774;52.256;9.356;2024-02-16T09:26:23;4.78;;;1.60;;
40072;SDS011;25774;52.256;9.356;2024-02-16T09:28:50;2.95;;;1.50;;
40072;SDS011;25774;52.256;9.356;2024-02-16T09:31:16;3.90;;;1.53;;
40072;SDS011;25774;52.256;9.356;2024-02-16T09:36:06;5.70;;;1.33;;
40072;SDS011;25774;52.256;9.356;2024-02-16T09:38:32;8.10;;;1.50;;
40072;SDS011;25774;52.256;9.356;2024-02-16T09:40:57;3.43;;;1.40;;
40072;SDS011;25774;52.256;9.356;2024-02-16T09:43:26;5.67;;;1.80;;
40072;SDS011;25774;52.256;9.356;2024-02-16T09:45:53;6.10;;;1.23;;
40072;SDS011;25774;52.256;9.356;2024-02-16T09:48:19;4.85;;;1.55;;
40072;SDS011;25774;52.256;9.356;2024-02-16T09:50:45;7.70;;;1.50;;
40072;SDS011;25774;52.256;9.356;2024-02-16T09:53:10;3.53;;;1.38;;
40072;SDS011;25774;52.256;9.356;2024-02-16T09:55:41;2.73;;;1.43;;
40072;SDS011;25774;52.256;9.356;2024-02-16T09:58:07;4.90;;;1.30;;
40072;SDS011;25774;52.256;9.356;2024-02-16T10:00:33;5.77;;;1.37;;
40072;SDS011;25774;52.256;9.356;2024-02-16T10:02:58;7.10;;;1.67;;
40072;SDS011;25774;52.256;9.356;2024-02-16T10:05:24;3.90;;;1.60;;
40072;SDS011;25774;52.256;9.356;2024-02-16T10:07:50;3.47;;;1.20;;
40072;SDS011;25774;52.256;9.356;2024-02-16T10:12:50;9.15;;;1.45;;
40072;SDS011;25774;52.256;9.356;2024-02-16T10:15:21;6.45;;;1.65;;
40072;SDS011;25774;52.256;9.356;2024-02-16T10:18:04;8.82;;;1.60;;
40072;SDS011;25774;52.256;9.356;2024-02-16T10:20:30;5.35;;;1.80;;
40072;SDS011;25774;52.256;9.356;2024-02-16T10:23:02;6.28;;;1.55;;
40072;SDS011;25774;52.256;9.356;2024-02-16T10:25:27;3.58;;;1.63;;
40072;SDS011;25774;52.256;9.356;2024-02-16T10:27:53;6.43;;;1.57;;
40072;SDS011;25774;52.256;9.356;2024-02-16T10:30:20;5.85;;;1.65;;
40072;SDS011;25774;52.256;9.356;2024-02-16T10:32:46;4.30;;;1.63;;
40072;SDS011;25774;52.256;9.356;2024-02-16T10:35:12;6.43;;;1.50;;
40072;SDS011;25774;52.256;9.356;2024-02-16T10:37:38;6.72;;;1.58;;
40072;SDS011;25774;52.256;9.356;2024-02-16T10:40:05;6.63;;;1.95;;
40072;SDS011;25774;52.256;9.356;2024-02-16T10:42:32;5.50;;;1.60;;
40072;SDS011;25774;52.256;9.356;2024-02-16T10:44:59;10.00;;;2.03;;
40072;SDS011;25774;52.256;9.356;2024-02-16T10:47:25;3.92;;;1.50;;
40072;SDS011;25774;52.256;9.356;2024-02-16T10:49:50;7.63;;;1.50;;
40072;SDS011;25774;52.256;9.356;2024-02-16T10:52:15;4.37;;;1.40;;
40072;SDS011;25774;52.256;9.356;2024-02-16T10:57:07;4.13;;;1.52;;
40072;SDS011;25774;52.256;9.356;2024-02-16T10:59:42;4.68;;;1.70;;
40072;SDS011;25774;52.256;9.356;2024-02-16T11:02:12;7.20;;;1.92;;
40072;SDS011;25774;52.256;9.356;2024-02-16T11:04:39;7.47;;;1.75;;
40072;SDS011;25774;52.256;9.356;2024-02-16T11:07:14;3.92;;;1.50;;
40072;SDS011;25774;52.256;9.356;2024-02-16T11:09:40;6.20;;;1.80;;
40072;SDS011;25774;52.256;9.356;2024-02-16T11:12:06;8.47;;;1.90;;
40072;SDS011;25774;52.256;9.356;2024-02-16T11:14:42;5.18;;;1.63;;
40072;SDS011;25774;52.256;9.356;2024-02-16T11:17:08;3.55;;;1.48;;
40072;SDS011;25774;52.256;9.356;2024-02-16T11:19:35;6.35;;;1.40;;
40072;SDS011;25774;52.256;9.356;2024-02-16T11:22:03;8.87;;;1.70;;
40072;SDS011;25774;52.256;9.356;2024-02-16T11:24:33;6.25;;;1.70;;
40072;SDS011;25774;52.256;9.356;2024-02-16T11:27:01;5.53;;;1.52;;
40072;SDS011;25774;52.256;9.356;2024-02-16T11:29:26;7.15;;;1.73;;
40072;SDS011;25774;52.256;9.356;2024-02-16T11:31:55;5.15;;;1.48;;
40072;SDS011;25774;52.256;9.356;2024-02-16T11:34:22;6.45;;;1.55;;
40072;SDS011;25774;52.256;9.356;2024-02-16T11:36:47;8.90;;;1.75;;
40072;SDS011;25774;52.256;9.356;2024-02-16T11:39:13;7.53;;;1.83;;
40072;SDS011;25774;52.256;9.356;2024-02-16T11:41:41;9.32;;;1.60;;
40072;SDS011;25774;52.256;9.356;2024-02-16T11:44:06;9.37;;;2.20;;
40072;SDS011;25774;52.256;9.356;2024-02-16T11:46:31;7.30;;;1.70;;
40072;SDS011;25774;52.256;9.356;2024-02-16T11:49:04;14.00;;;2.23;;
40072;SDS011;25774;52.256;9.356;2024-02-16T11:51:29;6.30;;;2.00;;
40072;SDS011;25774;52.256;9.356;2024-02-16T11:53:55;8.63;;;1.70;;
40072;SDS011;25774;52.256;9.356;2024-02-16T11:56:22;8.05;;;2.00;;
40072;SDS011;25774;52.256;9.356;2024-02-16T12:01:12;11.60;;;2.00;;
40072;SDS011;25774;52.256;9.356;2024-02-16T12:03:37;9.13;;;2.17;;
40072;SDS011;25774;52.256;9.356;2024-02-16T12:06:06;8.93;;;1.77;;
40072;SDS011;25774;52.256;9.356;2024-02-16T12:10:57;5.60;;;1.90;;
40072;SDS011;25774;52.256;9.356;2024-02-16T12:13:22;6.83;;;2.07;;
40072;SDS011;25774;52.256;9.356;2024-02-16T12:15:48;8.80;;;1.97;;
40072;SDS011;25774;52.256;9.356;2024-02-16T12:18:20;8.15;;;2.08;;
40072;SDS011;25774;52.256;9.356;2024-02-16T12:20:55;7.50;;;2.50;;
40072;SDS011;25774;52.256;9.356;2024-02-16T12:23:21;7.93;;;2.45;;
40072;SDS011;25774;52.256;9.356;2024-02-16T12:25:46;5.33;;;1.60;;
40072;SDS011;25774;52.256;9.356;2024-02-16T12:28:11;6.67;;;2.10;;
40072;SDS011;25774;52.256;9.356;2024-02-16T12:30:36;8.27;;;2.33;;
40072;SDS011;25774;52.256;9.356;2024-02-16T12:33:02;5.70;;;2.20;;
40072;SDS011;25774;52.256;9.356;2024-02-16T12:35:28;8.93;;;2.42;;
40072;SDS011;25774;52.256;9.356;2024-02-16T12:40:19;6.43;;;1.93;;
40072;SDS011;25774;52.256;9.356;2024-02-16T12:42:44;8.63;;;2.33;;
40072;SDS011;25774;52.256;9.356;2024-02-16T12:45:09;6.30;;;2.43;;
40072;SDS011;25774;52.256;9.356;2024-02-16T12:47:35;8.85;;;2.65;;
40072;SDS011;25774;52.256;9.356;2024-02-16T12:50:01;8.27;;;2.33;;
40072;SDS011;25774;52.256;9.356;2024-02-16T12:54:52;7.33;;;2.10;;
40072;SDS011;25774;52.256;9.356;2024-02-16T12:57:17;8.00;;;2.55;;
40072;SDS011;25774;52.256;9.356;2024-02-16T12:59:43;5.25;;;2.28;;
40072;SDS011;25774;52.256;9.356;2024-02-16T13:02:09;7.47;;;2.07;;
40072;SDS011;25774;52.256;9.356;2024-02-16T13:04:34;12.53;;;2.33;;
40072;SDS011;25774;52.256;9.356;2024-02-16T13:07:00;9.13;;;2.75;;
40072;SDS011;25774;52.256;9.356;2024-02-16T13:09:27;9.00;;;3.08;;
40072;SDS011;25774;52.256;9.356;2024-02-16T13:11:53;10.68;;;2.33;;
40072;SDS011;25774;52.256;9.356;2024-02-16T13:14:19;8.20;;;2.35;;
40072;SDS011;25774;52.256;9.356;2024-02-16T13:16:44;8.25;;;2.58;;
40072;SDS011;25774;52.256;9.356;2024-02-16T13:19:09;8.77;;;2.53;;
40072;SDS011;25774;52.256;9.356;2024-02-16T13:21:36;11.60;;;2.93;;
40072;SDS011;25774;52.256;9.356;2024-02-16T13:26:27;6.63;;;2.30;;
40072;SDS011;25774;52.256;9.356;2024-02-16T13:28:53;8.30;;;2.73;;
40072;SDS011;25774;52.256;9.356;2024-02-16T13:31:19;15.00;;;2.83;;
40072;SDS011;25774;52.256;9.356;2024-02-16T13:33:45;11.45;;;3.35;;
40072;SDS011;25774;52.256;9.356;2024-02-16T13:36:10;11.23;;;2.97;;
40072;SDS011;25774;52.256;9.356;2024-02-16T13:38:35;14.10;;;2.60;;
40072;SDS011;25774;52.256;9.356;2024-02-16T13:41:00;8.77;;;2.67;;
40072;SDS011;25774;52.256;9.356;2024-02-16T13:43:26;11.33;;;2.67;;
40072;SDS011;25774;52.256;9.356;2024-02-16T13:45:53;10.00;;;2.83;;
40072;SDS011;25774;52.256;9.356;2024-02-16T13:48:19;12.82;;;3.40;;
40072;SDS011;25774;52.256;9.356;2024-02-16T13:53:10;7.60;;;2.80;;
40072;SDS011;25774;52.256;9.356;2024-02-16T13:55:35;7.83;;;2.63;;
40072;SDS011;25774;52.256;9.356;2024-02-16T13:58:00;8.73;;;2.70;;
40072;SDS011;25774;52.256;9.356;2024-02-16T14:00:26;6.83;;;2.83;;
40072;SDS011;25774;52.256;9.356;2024-02-16T14:02:52;11.45;;;3.30;;
40072;SDS011;25774;52.256;9.356;2024-02-16T14:05:17;7.73;;;2.87;;
40072;SDS011;25774;52.256;9.356;2024-02-16T14:07:42;10.63;;;2.90;;
40072;SDS011;25774;52.256;9.356;2024-02-16T14:10:07;10.17;;;2.67;;
40072;SDS011;25774;52.256;9.356;2024-02-16T14:12:33;8.60;;;2.80;;
40072;SDS011;25774;52.256;9.356;2024-02-16T14:14:58;8.53;;;2.83;;
40072;SDS011;25774;52.256;9.356;2024-02-16T14:17:23;8.37;;;3.00;;
40072;SDS011;25774;52.256;9.356;2024-02-16T14:19:48;7.93;;;3.37;;
40072;SDS011;25774;52.256;9.356;2024-02-16T14:22:13;10.50;;;4.13;;
40072;SDS011;25774;52.256;9.356;2024-02-16T14:24:39;10.33;;;3.17;;
40072;SDS011;25774;52.256;9.356;2024-02-16T14:27:05;10.13;;;3.00;;
40072;SDS011;25774;52.256;9.356;2024-02-16T14:29:30;8.75;;;3.03;;
40072;SDS011;25774;52.256;9.356;2024-02-16T14:31:55;13.83;;;3.67;;
40072;SDS011;25774;52.256;9.356;2024-02-16T14:34:21;11.97;;;3.53;;
40072;SDS011;25774;52.256;9.356;2024-02-16T14:36:46;6.47;;;2.80;;
40072;SDS011;25774;52.256;9.356;2024-02-16T14:39:12;7.70;;;3.20;;
40072;SDS011;25774;52.256;9.356;2024-02-16T14:41:37;8.63;;;3.13;;
40072;SDS011;25774;52.256;9.356;2024-02-16T14:44:02;11.57;;;3.63;;
40072;SDS011;25774;52.256;9.356;2024-02-16T14:46:28;10.48;;;4.28;;
40072;SDS011;25774;52.256;9.356;2024-02-16T14:48:53;12.40;;;4.93;;
40072;SDS011;25774;52.256;9.356;2024-02-16T14:51:18;7.60;;;3.77;;
40072;SDS011;25774;52.256;9.356;2024-02-16T14:53:45;9.27;;;3.85;;
40072;SDS011;25774;52.256;9.356;2024-02-16T14:56:10;8.83;;;4.57;;
40072;SDS011;25774;52.256;9.356;2024-02-16T14:58:35;12.17;;;4.87;;
40072;SDS011;25774;52.256;9.356;2024-02-16T15:01:00;10.80;;;4.33;;
40072;SDS011;25774;52.256;9.356;2024-02-16T15:03:26;9.23;;;5.23;;
40072;SDS011;25774;52.256;9.356;2024-02-16T15:05:56;12.68;;;5.45;;
40072;SDS011;25774;52.256;9.356;2024-02-16T15:10:46;12.20;;;5.40;;